Time;durP1;ratioP1;P1;durP2;ratioP2;P2;SDS_P1;SDS_P2;PMS_P1;PMS_P2;Temp;Humidity;BMP_temperature;BMP_pressure;BME280_temperature;BME280_humidity;BME280_pressure;Samples;Min_cycle;Max_cycle;Signal;HPM_P1;HPM_P2
2024/01/06 00:00:39;;;;;;;37.70;28.25;;;6.90;99.90;;;;;;5026609;28;20039;-72
2024/01/06 00:03:05;;;;;;;37.03;26.30;;;6.90;99.90;;;;;;5025879;28;20029;-72
2024/01/06 00:05:31;;;;;;;32.50;25.08;;;6.90;99.90;;;;;;4994768;28;20034;-70
2024/01/06 00:07:57;;;;;;;28.25;24.85;;;6.80;99.90;;;;;;5031894;28;20173;-76
2024/01/06 00:10:22;;;;;;;29.92;24.10;;;6.80;99.90;;;;;;5043321;28;20025;-71
2024/01/06 00:12:49;;;;;;;32.72;24.27;;;6.80;99.90;;;;;;5041884;28;20041;-70
2024/01/06 00:15:15;;;;;;;37.38;24.40;;;6.90;99.90;;;;;;5043494;28;20024;-70
2024/01/06 00:17:40;;;;;;;28.80;25.02;;;6.80;99.90;;;;;;5043556;28;20047;-70
2024/01/06 00:20:07;;;;;;;33.45;23.98;;;6.80;99.90;;;;;;5043152;28;20037;-71
2024/01/06 00:22:33;;;;;;;32.83;23.55;;;6.80;99.90;;;;;;5040564;28;20021;-71
2024/01/06 00:24:59;;;;;;;29.70;22.25;;;6.90;99.90;;;;;;5042346;28;20353;-71
2024/01/06 00:27:25;;;;;;;30.75;24.25;;;6.80;99.90;;;;;;5042827;28;20088;-70
2024/01/06 00:29:51;;;;;;;43.83;24.25;;;6.90;99.90;;;;;;5043635;28;20025;-71
2024/01/06 00:32:17;;;;;;;32.00;21.90;;;6.80;99.90;;;;;;5040491;28;20028;-71
2024/01/06 00:34:43;;;;;;;36.25;23.20;;;6.80;99.90;;;;;;5008409;28;20021;-70
2024/01/06 00:37:08;;;;;;;25.77;22.50;;;6.80;99.90;;;;;;5042507;28;20064;-71
2024/01/06 00:39:34;;;;;;;29.13;22.60;;;6.80;99.90;;;;;;5041685;28;20037;-71
2024/01/06 00:42:00;;;;;;;35.97;25.90;;;6.80;99.90;;;;;;5023959;28;20033;-71
2024/01/06 00:44:25;;;;;;;49.65;23.00;;;6.80;99.90;;;;;;5040955;28;20025;-75
2024/01/06 00:46:51;;;;;;;35.60;21.15;;;6.80;99.90;;;;;;5041136;28;20199;-71
2024/01/06 00:49:17;;;;;;;31.05;23.25;;;6.80;99.90;;;;;;5042718;28;20021;-70
2024/01/06 00:51:43;;;;;;;29.15;23.00;;;6.80;99.90;;;;;;5043654;28;20038;-71
2024/01/06 00:54:08;;;;;;;28.48;20.55;;;6.80;99.90;;;;;;5042315;28;20047;-71
2024/01/06 00:56:34;;;;;;;27.92;19.52;;;6.80;99.90;;;;;;5023980;28;20022;-71
2024/01/06 00:59:00;;;;;;;28.35;18.75;;;6.80;99.90;;;;;;5040841;28;20089;-71
2024/01/06 01:01:26;;;;;;;28.55;21.98;;;6.80;99.90;;;;;;5041977;28;20059;-70
2024/01/06 01:03:52;;;;;;;30.60;22.05;;;6.70;99.90;;;;;;5039607;28;20085;-70
2024/01/06 01:06:18;;;;;;;27.25;20.20;;;6.70;99.90;;;;;;5010441;28;20025;-71
2024/01/06 01:08:43;;;;;;;31.33;21.67;;;6.70;99.90;;;;;;5044311;28;20032;-71
2024/01/06 01:11:09;;;;;;;28.05;19.98;;;6.70;99.90;;;;;;5026341;28;20357;-70
2024/01/06 01:13:36;;;;;;;30.48;21.17;;;6.70;99.90;;;;;;5025137;28;20030;-71
2024/01/06 01:16:02;;;;;;;27.25;20.00;;;6.70;99.90;;;;;;5042704;28;20040;-72
2024/01/06 01:18:28;;;;;;;30.45;20.95;;;6.60;99.90;;;;;;5044218;28;20417;-70
2024/01/06 01:20:54;;;;;;;24.20;19.77;;;6.60;99.90;;;;;;5010473;28;20096;-72
2024/01/06 01:23:20;;;;;;;24.52;19.23;;;6.60;99.90;;;;;;5042585;28;20330;-71
2024/01/06 01:25:46;;;;;;;25.67;19.70;;;6.60;99.90;;;;;;5026330;28;20021;-70
2024/01/06 01:28:12;;;;;;;25.88;17.60;;;6.60;99.90;;;;;;5026077;28;20334;-70
2024/01/06 01:30:38;;;;;;;22.00;18.30;;;6.60;99.90;;;;;;5044030;28;20025;-70
2024/01/06 01:33:04;;;;;;;28.50;20.20;;;6.50;99.90;;;;;;5024058;28;20083;-71
2024/01/06 01:35:30;;;;;;;22.40;18.00;;;6.50;99.90;;;;;;5043855;28;20080;-70
2024/01/06 01:37:56;;;;;;;19.13;17.13;;;6.40;99.90;;;;;;5043817;28;20254;-71
2024/01/06 01:40:22;;;;;;;20.45;16.73;;;6.50;99.90;;;;;;5042710;28;20040;-70
2024/01/06 01:42:48;;;;;;;18.95;16.88;;;6.30;99.90;;;;;;5025681;28;20207;-71
2024/01/06 01:45:14;;;;;;;23.65;15.82;;;6.20;99.90;;;;;;5042184;28;20033;-71
2024/01/06 01:47:40;;;;;;;19.67;14.25;;;6.20;99.90;;;;;;5025853;28;20017;-71
2024/01/06 01:50:07;;;;;;;18.92;16.55;;;6.20;99.90;;;;;;5043820;28;20033;-70
2024/01/06 01:52:33;;;;;;;17.88;16.13;;;6.20;99.90;;;;;;5024769;28;20029;-70
2024/01/06 01:55:00;;;;;;;22.25;16.58;;;6.70;99.90;;;;;;5043802;28;20032;-70
2024/01/06 01:57:26;;;;;;;22.63;16.30;;;6.10;99.90;;;;;;5043526;28;20202;-70
2024/01/06 01:59:53;;;;;;;23.80;19.92;;;6.10;99.90;;;;;;5025644;28;20033;-70
2024/01/06 02:02:20;;;;;;;22.50;17.70;;;6.10;99.90;;;;;;5042800;28;20029;-71
2024/01/06 02:04:46;;;;;;;21.15;16.98;;;6.10;99.90;;;;;;5008962;28;20032;-71
2024/01/06 02:07:12;;;;;;;28.02;17.25;;;6.00;99.90;;;;;;5025944;28;20037;-70
2024/01/06 02:09:38;;;;;;;20.90;18.63;;;6.00;99.90;;;;;;5026386;28;20021;-70
2024/01/06 02:12:04;;;;;;;24.83;18.55;;;6.00;99.90;;;;;;5040817;28;20203;-70
2024/01/06 02:14:32;;;;;;;23.58;18.83;;;6.00;99.90;;;;;;5025157;28;20024;-70
2024/01/06 02:16:58;;;;;;;20.88;16.48;;;5.90;99.90;;;;;;5009185;28;20029;-70
2024/01/06 02:19:24;;;;;;;22.60;17.27;;;5.90;99.90;;;;;;5043127;28;20148;-70
2024/01/06 02:21:53;;;;;;;23.50;18.35;;;5.90;99.90;;;;;;5025466;28;20033;-70
2024/01/06 02:24:19;;;;;;;25.88;17.85;;;5.90;99.90;;;;;;5040935;28;20021;-71
2024/01/06 02:26:44;;;;;;;21.73;19.52;;;5.90;99.90;;;;;;5024983;28;20250;-71
2024/01/06 02:29:10;;;;;;;26.40;18.33;;;5.80;99.90;;;;;;5008445;28;20022;-70
2024/01/06 02:31:36;;;;;;;25.75;17.90;;;5.90;99.90;;;;;;5008978;28;20021;-70
2024/01/06 02:34:02;;;;;;;21.83;16.35;;;5.80;99.90;;;;;;5030844;28;20026;-70
2024/01/06 02:36:28;;;;;;;19.45;17.48;;;5.80;99.90;;;;;;5023046;28;20026;-70
2024/01/06 02:38:54;;;;;;;25.58;17.90;;;5.80;99.90;;;;;;5022776;28;20362;-72
2024/01/06 02:41:20;;;;;;;23.55;16.52;;;5.80;99.90;;;;;;5022806;28;20048;-70
2024/01/06 02:43:47;;;;;;;22.35;20.05;;;5.80;99.90;;;;;;5035652;28;20025;-71
2024/01/06 02:46:12;;;;;;;21.35;19.13;;;5.80;99.90;;;;;;5025058;28;20021;-70
2024/01/06 02:48:38;;;;;;;22.00;19.63;;;5.80;99.90;;;;;;5041273;28;20039;-70
2024/01/06 02:51:04;;;;;;;23.10;19.23;;;5.70;99.90;;;;;;5042686;28;20029;-70
2024/01/06 02:53:30;;;;;;;21.33;17.10;;;5.70;99.90;;;;;;5041129;28;20021;-70
2024/01/06 02:55:55;;;;;;;22.67;16.60;;;5.70;99.90;;;;;;5042197;28;20195;-70
2024/01/06 02:58:21;;;;;;;27.08;20.67;;;5.60;99.90;;;;;;5007405;28;20017;-70
2024/01/06 03:00:47;;;;;;;26.02;20.20;;;5.60;99.90;;;;;;5025250;28;20053;-70
2024/01/06 03:03:13;;;;;;;23.33;19.70;;;5.60;99.90;;;;;;5023157;28;20025;-70
2024/01/06 03:05:39;;;;;;;34.22;22.67;;;5.60;99.90;;;;;;5008360;28;20021;-70
2024/01/06 03:08:05;;;;;;;21.55;19.15;;;5.60;99.90;;;;;;5041986;28;20260;-70
2024/01/06 03:10:31;;;;;;;28.73;22.75;;;5.50;99.90;;;;;;5024593;28;20092;-71
2024/01/06 03:12:56;;;;;;;25.83;20.88;;;5.60;99.90;;;;;;5023337;28;20026;-70
2024/01/06 03:15:23;;;;;;;23.38;17.00;;;5.60;99.90;;;;;;5039864;28;20033;-71
2024/01/06 03:17:49;;;;;;;25.98;20.58;;;5.60;99.90;;;;;;5024606;28;20325;-70
2024/01/06 03:20:14;;;;;;;25.30;20.13;;;5.60;99.90;;;;;;5040868;28;20057;-70
2024/01/06 03:22:40;;;;;;;26.35;20.02;;;5.50;99.90;;;;;;5040308;28;20024;-70
2024/01/06 03:25:06;;;;;;;26.08;20.50;;;5.50;99.90;;;;;;5024150;28;20017;-72
2024/01/06 03:27:32;;;;;;;24.65;17.95;;;5.50;99.90;;;;;;5041691;28;20022;-70
2024/01/06 03:29:58;;;;;;;26.08;17.98;;;5.50;99.90;;;;;;5042341;28;20076;-71
2024/01/06 03:32:24;;;;;;;35.05;18.27;;;5.50;99.90;;;;;;5022597;28;20237;-70
2024/01/06 03:34:50;;;;;;;19.02;16.90;;;5.50;99.90;;;;;;5041333;28;20021;-71
2024/01/06 03:37:16;;;;;;;21.55;17.77;;;5.50;99.90;;;;;;5040962;28;20029;-70
2024/01/06 03:39:41;;;;;;;18.73;15.10;;;5.40;99.90;;;;;;5040703;28;20037;-72
2024/01/06 03:42:08;;;;;;;20.15;17.92;;;;;;;;;;5040280;28;20026;-71
2024/01/06 03:44:34;;;;;;;22.15;16.90;;;5.40;99.90;;;;;;5007557;28;20032;-70
2024/01/06 03:47:00;;;;;;;20.67;15.82;;;5.30;99.90;;;;;;5042024;28;20030;-70
2024/01/06 03:49:27;;;;;;;18.23;14.30;;;5.40;99.90;;;;;;5040923;28;20151;-70
2024/01/06 03:51:52;;;;;;;15.85;14.07;;;5.30;99.90;;;;;;5024564;28;20376;-69
2024/01/06 03:54:19;;;;;;;18.60;16.25;;;5.30;99.90;;;;;;5040292;28;20026;-71
2024/01/06 03:56:44;;;;;;;20.65;16.70;;;5.30;99.90;;;;;;5041635;28;20041;-71
2024/01/06 03:59:10;;;;;;;20.35;15.88;;;5.30;99.90;;;;;;5024448;28;20083;-70
2024/01/06 04:01:36;;;;;;;20.95;15.65;;;5.30;99.90;;;;;;5024285;28;20084;-70
2024/01/06 04:04:05;;;;;;;21.15;14.40;;;5.30;99.90;;;;;;5039061;28;20025;-70
2024/01/06 04:06:34;;;;;;;18.73;14.30;;;5.30;99.90;;;;;;5042188;28;20034;-72
2024/01/06 04:09:01;;;;;;;19.30;15.65;;;5.20;99.90;;;;;;5024800;28;20026;-71
2024/01/06 04:11:27;;;;;;;21.40;15.23;;;5.20;99.90;;;;;;5044153;28;20036;-70
2024/01/06 04:13:53;;;;;;;18.40;16.80;;;5.20;99.90;;;;;;5028353;28;20017;-70
2024/01/06 04:16:20;;;;;;;15.27;13.73;;;5.20;99.90;;;;;;5007948;28;20030;-70
2024/01/06 04:18:45;;;;;;;14.50;13.00;;;5.20;99.90;;;;;;5021999;28;20327;-71
2024/01/06 04:21:11;;;;;;;16.10;13.82;;;5.10;99.90;;;;;;5027633;28;20032;-72
2024/01/06 04:23:37;;;;;;;12.95;11.85;;;5.10;99.90;;;;;;5025957;28;20214;-70
2024/01/06 04:26:04;;;;;;;16.05;13.68;;;5.10;99.90;;;;;;5043889;28;20241;-73
2024/01/06 04:28:30;;;;;;;13.40;11.45;;;5.10;99.90;;;;;;5044088;28;20215;-72
2024/01/06 04:30:56;;;;;;;17.13;12.88;;;5.10;99.90;;;;;;5027048;28;20084;-71
2024/01/06 04:33:22;;;;;;;14.38;12.95;;;5.00;99.90;;;;;;5025698;28;20322;-70
2024/01/06 04:35:49;;;;;;;13.25;11.25;;;5.00;99.90;;;;;;5027708;28;20021;-70
2024/01/06 04:38:15;;;;;;;14.02;12.35;;;4.90;99.90;;;;;;5043936;28;20021;-70
2024/01/06 04:40:40;;;;;;;14.43;12.90;;;4.90;99.90;;;;;;5044948;28;20039;-73
2024/01/06 04:43:07;;;;;;;14.57;12.18;;;4.80;99.90;;;;;;5042766;28;20033;-70
2024/01/06 04:45:33;;;;;;;13.40;11.73;;;4.80;99.90;;;;;;5023884;28;20029;-70
2024/01/06 04:47:58;;;;;;;14.75;10.93;;;4.70;99.90;;;;;;5010331;28;20055;-70
2024/01/06 04:50:24;;;;;;;13.15;11.70;;;4.80;99.90;;;;;;5027082;28;20025;-70
2024/01/06 04:52:50;;;;;;;16.45;12.07;;;4.70;99.90;;;;;;5042664;28;20041;-70
2024/01/06 04:55:16;;;;;;;12.95;11.65;;;4.70;99.90;;;;;;5027091;28;20032;-70
2024/01/06 04:57:41;;;;;;;12.23;10.90;;;4.60;99.90;;;;;;5026538;28;20249;-71
2024/01/06 05:00:08;;;;;;;12.70;11.40;;;4.70;99.90;;;;;;5026920;28;20037;-73
2024/01/06 05:02:34;;;;;;;14.55;12.00;;;4.60;99.90;;;;;;5042229;28;20287;-71
2024/01/06 05:05:00;;;;;;;12.70;11.40;;;4.60;99.90;;;;;;5044554;28;20120;-70
2024/01/06 05:07:25;;;;;;;12.02;10.93;;;4.60;99.90;;;;;;5027084;28;20052;-70
2024/01/06 05:09:51;;;;;;;13.30;10.07;;;4.60;99.90;;;;;;5026767;28;20075;-70
2024/01/06 05:12:17;;;;;;;14.02;12.52;;;4.60;99.90;;;;;;5008804;28;20024;-71
2024/01/06 05:14:43;;;;;;;11.95;10.75;;;4.60;99.90;;;;;;5043971;28;20029;-70
2024/01/06 05:17:09;;;;;;;13.30;11.38;;;4.50;99.90;;;;;;5010220;28;20029;-70
2024/01/06 05:19:35;;;;;;;13.02;10.48;;;4.50;99.90;;;;;;5043860;28;20374;-70
2024/01/06 05:22:02;;;;;;;11.75;10.52;;;4.50;99.90;;;;;;5043421;28;20136;-70
2024/01/06 05:24:28;;;;;;;11.15;10.07;;;4.50;99.90;;;;;;5044069;28;20029;-70
2024/01/06 05:26:54;;;;;;;14.73;12.05;;;4.50;99.90;;;;;;5026249;28;20222;-70
2024/01/06 05:29:19;;;;;;;12.95;11.65;;;4.60;99.90;;;;;;5026412;28;20033;-70
2024/01/06 05:31:47;;;;;;;10.90;9.73;;;4.50;99.90;;;;;;5044091;28;20085;-73
2024/01/06 05:34:13;;;;;;;13.23;10.48;;;4.50;99.90;;;;;;5038029;28;20036;-71
2024/01/06 05:36:39;;;;;;;13.52;12.13;;;4.50;99.90;;;;;;5025407;28;20206;-70
2024/01/06 05:39:05;;;;;;;11.13;10.00;;;4.50;99.90;;;;;;5044009;28;20302;-69
2024/01/06 05:41:37;;;;;;;14.07;12.77;;;4.50;99.90;;;;;;5043821;28;20030;-71
2024/01/06 05:44:04;;;;;;;12.82;11.10;;;4.90;99.90;;;;;;5025020;28;20068;-72
2024/01/06 05:46:30;;;;;;;13.18;11.80;;;4.50;99.90;;;;;;5043722;28;20372;-69
2024/01/06 05:48:56;;;;;;;12.90;10.95;;;4.50;99.90;;;;;;5025853;28;20056;-70
2024/01/06 05:51:22;;;;;;;13.13;11.70;;;4.50;99.90;;;;;;5009750;28;20063;-71
2024/01/06 05:53:48;;;;;;;14.88;13.43;;;4.50;99.90;;;;;;5041952;28;20048;-71
2024/01/06 05:56:27;;;;;;;11.50;10.35;;;4.60;99.90;;;;;;5043597;28;20048;-70
2024/01/06 05:58:55;;;;;;;13.13;11.95;;;4.50;99.90;;;;;;5043839;28;20036;-70
2024/01/06 06:01:21;;;;;;;11.57;10.13;;;4.40;99.90;;;;;;5009781;28;20092;-70
2024/01/06 06:03:47;;;;;;;18.67;10.93;;;4.40;99.90;;;;;;5041394;28;20051;-71
2024/01/06 06:06:13;;;;;;;13.73;12.07;;;4.50;99.90;;;;;;5041631;28;20036;-70
2024/01/06 06:08:42;;;;;;;13.82;11.38;;;4.40;99.90;;;;;;5034338;28;20021;-71
2024/01/06 06:11:10;;;;;;;13.90;12.15;;;4.40;99.90;;;;;;5009281;28;20340;-69
2024/01/06 06:13:42;;;;;;;12.27;10.27;;;4.40;99.90;;;;;;5041792;28;20025;-71
2024/01/06 06:16:14;;;;;;;10.80;9.57;;;4.40;99.90;;;;;;5043092;28;20425;-70
2024/01/06 06:18:40;;;;;;;14.15;10.38;;;4.40;99.90;;;;;;5043584;28;20033;-69
2024/01/06 06:21:10;;;;;;;11.48;10.30;;;4.30;99.90;;;;;;5041735;28;20027;-71
2024/01/06 06:23:35;;;;;;;9.90;8.95;;;4.30;99.90;;;;;;5037691;28;20040;-73
2024/01/06 06:26:06;;;;;;;10.85;9.95;;;4.30;99.90;;;;;;5024113;28;20214;-71
2024/01/06 06:28:32;;;;;;;10.00;8.98;;;4.30;99.90;;;;;;5035092;28;20025;-71
2024/01/06 06:30:58;;;;;;;10.38;8.75;;;4.20;99.90;;;;;;5024625;28;20018;-70
2024/01/06 06:33:24;;;;;;;8.38;7.57;;;4.20;99.90;;;;;;5039364;28;20043;-71
2024/01/06 06:35:50;;;;;;;9.75;8.52;;;4.30;99.90;;;;;;5008131;28;20045;-70
2024/01/06 06:38:16;;;;;;;10.05;9.05;;;4.20;99.90;;;;;;5041125;28;20044;-70
2024/01/06 06:40:42;;;;;;;9.88;8.98;;;4.30;99.90;;;;;;5041119;28;20044;-70
2024/01/06 06:43:08;;;;;;;10.38;9.45;;;4.20;99.90;;;;;;5017613;28;20021;-71
2024/01/06 06:45:34;;;;;;;8.60;7.70;;;4.20;99.90;;;;;;5020311;28;20025;-70
2024/01/06 06:48:00;;;;;;;6.93;6.32;;;4.80;99.90;;;;;;5035478;28;20323;-71
2024/01/06 06:50:29;;;;;;;6.50;5.90;;;4.20;99.90;;;;;;5022861;28;20080;-72
2024/01/06 06:52:56;;;;;;;8.93;8.02;;;4.20;99.90;;;;;;5038626;28;20021;-71
2024/01/06 06:55:22;;;;;;;7.22;6.60;;;4.10;99.90;;;;;;5039564;28;20314;-70
2024/01/06 06:57:48;;;;;;;6.00;5.60;;;4.20;99.90;;;;;;5015624;28;20124;-70
2024/01/06 07:00:14;;;;;;;8.25;7.55;;;4.20;99.90;;;;;;5018798;28;20231;-71
2024/01/06 07:02:40;;;;;;;11.85;6.68;;;4.20;99.90;;;;;;5018267;28;20449;-72
2024/01/06 07:05:06;;;;;;;8.25;7.50;;;4.20;99.90;;;;;;5040731;28;20045;-72
2024/01/06 07:07:33;;;;;;;7.78;7.18;;;4.00;99.90;;;;;;5023209;28;20092;-71
2024/01/06 07:10:01;;;;;;;8.40;7.63;;;4.10;99.90;;;;;;5039518;28;20030;-71
2024/01/06 07:12:27;;;;;;;7.05;6.35;;;4.20;99.90;;;;;;5038567;28;20026;-72
2024/01/06 07:14:54;;;;;;;6.32;5.60;;;4.20;99.90;;;;;;4988446;28;20010;-71
2024/01/06 07:17:20;;;;;;;5.82;5.25;;;4.20;99.90;;;;;;5040275;28;20085;-71
2024/01/06 07:19:46;;;;;;;8.05;7.35;;;4.20;99.90;;;;;;5006570;28;20029;-75
2024/01/06 07:22:11;;;;;;;8.63;5.72;;;4.20;99.90;;;;;;5020803;28;20029;-72
2024/01/06 07:24:37;;;;;;;8.50;6.43;;;4.20;99.90;;;;;;5040582;28;20092;-70
2024/01/06 07:27:04;;;;;;;7.68;6.82;;;4.20;99.90;;;;;;5036927;28;20037;-70
2024/01/06 07:29:29;;;;;;;7.93;6.50;;;4.20;99.90;;;;;;5022853;28;20075;-71
2024/01/06 07:31:56;;;;;;;6.65;6.07;;;4.20;99.90;;;;;;5039951;28;20013;-71
2024/01/06 07:34:22;;;;;;;5.90;5.30;;;4.20;99.90;;;;;;5003933;28;20034;-70
2024/01/06 07:36:48;;;;;;;7.25;6.55;;;4.20;99.90;;;;;;4996179;28;20318;-71
2024/01/06 07:39:13;;;;;;;9.63;7.18;;;4.20;99.90;;;;;;5022956;28;20037;-73
2024/01/06 07:41:39;;;;;;;6.55;5.95;;;4.20;99.90;;;;;;5022361;28;20393;-75
2024/01/06 07:44:05;;;;;;;10.23;6.95;;;4.20;99.90;;;;;;5038214;28;20091;-71
2024/01/06 07:46:32;;;;;;;11.77;8.55;;;4.10;99.90;;;;;;5042582;28;20033;-73
2024/01/06 07:48:57;;;;;;;8.30;7.45;;;3.80;99.90;;;;;;5043471;28;20214;-73
2024/01/06 07:51:24;;;;;;;8.68;7.70;;;4.10;99.90;;;;;;5044543;28;20020;-71
2024/01/06 07:53:51;;;;;;;9.07;8.27;;;4.20;99.90;;;;;;5042005;28;20241;-75
2024/01/06 07:56:17;;;;;;;8.45;7.75;;;4.20;99.90;;;;;;5043303;28;20022;-71
2024/01/06 07:58:44;;;;;;;8.10;7.28;;;4.30;99.90;;;;;;5026246;28;20032;-71
2024/01/06 08:01:09;;;;;;;6.72;5.72;;;4.20;99.90;;;;;;5043747;28;20100;-69
2024/01/06 08:03:35;;;;;;;10.18;6.75;;;4.20;99.90;;;;;;5008551;28;20018;-69
2024/01/06 08:06:01;;;;;;;7.28;5.10;;;4.30;99.90;;;;;;5045372;28;20075;-69
2024/01/06 08:08:27;;;;;;;6.47;5.97;;;4.30;99.90;;;;;;5042684;28;20080;-69
2024/01/06 08:10:53;;;;;;;6.85;6.18;;;4.30;99.90;;;;;;5043562;28;20258;-69
2024/01/06 08:13:18;;;;;;;6.25;5.60;;;4.30;99.90;;;;;;5023445;28;20033;-69
2024/01/06 08:15:44;;;;;;;8.30;6.28;;;4.30;99.90;;;;;;5041128;28;20341;-70
2024/01/06 08:18:10;;;;;;;8.50;6.25;;;4.30;99.90;;;;;;5025559;28;20045;-69
2024/01/06 08:20:36;;;;;;;6.18;5.50;;;4.30;99.90;;;;;;5041203;28;20036;-69
2024/01/06 08:23:02;;;;;;;7.20;6.47;;;4.40;99.90;;;;;;5041367;28;20113;-69
2024/01/06 08:25:28;;;;;;;6.05;5.55;;;4.30;99.90;;;;;;5038329;28;20211;-70
2024/01/06 08:27:54;;;;;;;8.52;7.78;;;4.40;99.90;;;;;;5015861;28;20048;-71
2024/01/06 08:30:20;;;;;;;7.10;6.43;;;4.30;99.90;;;;;;5025524;28;20032;-69
2024/01/06 08:32:46;;;;;;;8.30;6.28;;;4.30;99.90;;;;;;5003683;28;20303;-70
2024/01/06 08:35:13;;;;;;;7.22;6.57;;;4.60;99.90;;;;;;5009547;28;20017;-69
2024/01/06 08:37:39;;;;;;;7.38;5.82;;;4.50;99.90;;;;;;5044162;28;20049;-70
2024/01/06 08:40:05;;;;;;;6.68;5.60;;;4.60;99.90;;;;;;5043529;28;20341;-71
2024/01/06 08:42:31;;;;;;;6.72;6.05;;;4.60;99.90;;;;;;5035062;28;20037;-70
2024/01/06 08:44:57;;;;;;;7.28;5.03;;;4.60;99.90;;;;;;5042396;28;20206;-69
2024/01/06 08:47:23;;;;;;;9.00;6.35;;;4.60;99.90;;;;;;5041491;28;20526;-70
2024/01/06 08:49:49;;;;;;;7.43;6.63;;;4.60;99.90;;;;;;5036699;28;20029;-69
2024/01/06 08:52:14;;;;;;;7.22;6.57;;;4.60;99.90;;;;;;5039578;28;20029;-71
2024/01/06 08:54:40;;;;;;;6.32;5.72;;;4.60;99.90;;;;;;5023006;28;20022;-69
2024/01/06 08:57:06;;;;;;;7.47;5.55;;;4.60;99.90;;;;;;5040289;28;20348;-71
2024/01/06 08:59:32;;;;;;;6.78;6.07;;;4.60;99.90;;;;;;5007793;28;20108;-73
2024/01/06 09:01:58;;;;;;;6.47;5.90;;;4.70;99.90;;;;;;5022615;28;20298;-72
2024/01/06 09:04:24;;;;;;;7.18;6.47;;;4.70;99.90;;;;;;5021228;28;20018;-74
2024/01/06 09:06:50;;;;;;;7.60;5.57;;;4.70;99.90;;;;;;5019458;28;20056;-73
2024/01/06 09:09:16;;;;;;;8.55;6.82;;;4.70;99.90;;;;;;5022447;28;20021;-72
2024/01/06 09:11:43;;;;;;;7.55;6.88;;;4.70;99.90;;;;;;5042171;28;20212;-73
2024/01/06 09:14:13;;;;;;;8.82;7.00;;;4.60;99.90;;;;;;5032794;28;20036;-72
2024/01/06 09:16:39;;;;;;;8.48;6.80;;;4.70;99.90;;;;;;5024411;28;20036;-72
2024/01/06 09:19:05;;;;;;;6.07;5.47;;;4.80;99.90;;;;;;5017946;28;20041;-73
2024/01/06 09:21:30;;;;;;;7.15;6.35;;;4.80;99.90;;;;;;5041920;28;20253;-72
2024/01/06 09:23:56;;;;;;;7.25;6.10;;;4.80;99.90;;;;;;5038038;28;20047;-71
2024/01/06 09:26:22;;;;;;;7.30;6.60;;;4.90;99.90;;;;;;5043417;28;20080;-71
2024/01/06 09:28:48;;;;;;;10.90;7.18;;;4.90;99.90;;;;;;5038910;28;20593;-70
2024/01/06 09:31:14;;;;;;;11.15;7.03;;;;;;;;;;5042475;28;20087;-72
2024/01/06 09:33:40;;;;;;;8.48;7.70;;;5.00;99.90;;;;;;5028466;28;20025;-72
2024/01/06 09:36:06;;;;;;;7.00;6.28;;;5.00;99.90;;;;;;5019514;28;20026;-71
2024/01/06 09:38:32;;;;;;;9.80;7.30;;;5.10;99.90;;;;;;5034188;28;20017;-71
2024/01/06 09:40:58;;;;;;;13.82;7.80;;;5.00;99.90;;;;;;5024818;28;20057;-72
2024/01/06 09:43:24;;;;;;;8.25;7.55;;;4.90;99.90;;;;;;5028804;28;20029;-73
2024/01/06 09:46:10;;;;;;;7.25;5.68;;;4.90;99.90;;;;;;5042346;28;20384;-73
2024/01/06 09:48:43;;;;;;;7.15;6.47;;;4.40;99.90;;;;;;5036268;28;20088;-73
2024/01/06 09:51:12;;;;;;;8.18;7.28;;;4.60;99.90;;;;;;5024556;28;20369;-71
2024/01/06 09:53:46;;;;;;;9.13;7.37;;;4.70;99.90;;;;;;5027328;28;20022;-72
2024/01/06 09:56:13;;;;;;;9.52;7.32;;;4.70;99.90;;;;;;5024617;28;20025;-71
2024/01/06 09:58:39;;;;;;;9.73;8.75;;;4.60;99.90;;;;;;5039178;28;20029;-71
2024/01/06 10:01:06;;;;;;;9.40;8.38;;;4.60;99.90;;;;;;5024054;28;20037;-72
2024/01/06 10:03:34;;;;;;;9.50;7.25;;;4.60;99.90;;;;;;5039535;28;20092;-71
2024/01/06 10:06:03;;;;;;;9.68;8.10;;;4.60;99.90;;;;;;5024880;28;20055;-71
2024/01/06 10:08:29;;;;;;;12.57;9.70;;;4.70;99.90;;;;;;5024251;28;20041;-70
2024/01/06 10:10:55;;;;;;;10.82;8.05;;;4.60;99.90;;;;;;5025526;28;20026;-70
2024/01/06 10:13:23;;;;;;;9.70;8.75;;;4.60;99.90;;;;;;5007477;28;20033;-71
2024/01/06 10:15:50;;;;;;;11.70;8.18;;;4.50;99.90;;;;;;5042906;28;20017;-71
2024/01/06 10:18:16;;;;;;;8.18;7.47;;;4.60;99.90;;;;;;5041513;28;20033;-71
2024/01/06 10:20:45;;;;;;;11.77;9.68;;;4.60;99.90;;;;;;5025552;28;20033;-71
2024/01/06 10:23:11;;;;;;;10.82;9.38;;;4.60;99.90;;;;;;5024332;28;20067;-71
2024/01/06 10:25:37;;;;;;;10.00;7.30;;;4.60;99.90;;;;;;5042944;28;20798;-71
2024/01/06 10:28:03;;;;;;;9.75;8.75;;;4.60;99.90;;;;;;5008487;28;20329;-71
2024/01/06 10:30:29;;;;;;;10.95;8.35;;;4.60;99.90;;;;;;5005936;28;20204;-71
2024/01/06 10:32:54;;;;;;;10.15;9.15;;;4.60;99.90;;;;;;5035650;28;20030;-71
2024/01/06 10:35:21;;;;;;;9.10;7.90;;;4.60;99.90;;;;;;5042162;28;20044;-71
2024/01/06 10:37:49;;;;;;;10.38;8.15;;;4.60;99.90;;;;;;5042634;28;20017;-70
2024/01/06 10:40:16;;;;;;;10.20;7.43;;;4.70;99.90;;;;;;5041689;28;20025;-72
2024/01/06 10:42:42;;;;;;;11.35;8.93;;;4.70;99.90;;;;;;4987563;28;20030;-70
2024/01/06 10:45:14;;;;;;;9.52;7.93;;;4.80;99.90;;;;;;5004298;28;20060;-69
2024/01/06 10:47:42;;;;;;;15.73;7.78;;;4.80;99.90;;;;;;5009634;28;20029;-69
2024/01/06 10:50:09;;;;;;;10.13;9.05;;;4.90;99.90;;;;;;5043744;28;20048;-70
2024/01/06 10:52:37;;;;;;;9.10;8.20;;;4.80;99.90;;;;;;5031857;28;20025;-70
2024/01/06 10:55:05;;;;;;;11.07;9.40;;;4.70;99.90;;;;;;5042373;28;20028;-70
2024/01/06 10:57:34;;;;;;;10.55;8.50;;;4.70;99.90;;;;;;5025321;28;20018;-70
2024/01/06 11:00:00;;;;;;;8.65;7.70;;;4.60;99.90;;;;;;5041744;28;20037;-71
2024/01/06 11:02:27;;;;;;;9.85;9.05;;;4.60;99.90;;;;;;5041322;28;20314;-71
2024/01/06 11:04:53;;;;;;;10.25;9.23;;;4.60;99.90;;;;;;5007623;28;20310;-71
2024/01/06 11:07:25;;;;;;;8.07;7.38;;;4.70;99.90;;;;;;5018918;28;20024;-70
2024/01/06 11:09:58;;;;;;;8.18;7.38;;;4.70;99.90;;;;;;5024607;28;20032;-70
2024/01/06 11:12:26;;;;;;;10.70;8.90;;;4.60;99.90;;;;;;5021826;28;20018;-70
2024/01/06 11:14:52;;;;;;;10.98;8.85;;;4.50;99.90;;;;;;5036227;28;20025;-70
2024/01/06 11:17:58;;;;;;;7.78;6.88;;;4.50;99.90;;;;;;5022850;28;20318;-70
2024/01/06 11:20:27;;;;;;;12.25;10.98;;;4.50;99.90;;;;;;5002812;28;20403;-71
2024/01/06 11:22:53;;;;;;;9.18;8.27;;;4.50;99.90;;;;;;5004715;28;20083;-70
2024/01/06 11:25:21;;;;;;;9.98;8.98;;;4.50;99.90;;;;;;5029720;28;20067;-70
2024/01/06 11:27:48;;;;;;;10.35;8.80;;;4.40;99.90;;;;;;5041942;28;20101;-70
2024/01/06 11:30:20;;;;;;;11.57;10.45;;;4.40;99.90;;;;;;5043074;28;20107;-71
2024/01/06 11:32:46;;;;;;;10.18;7.57;;;4.40;99.90;;;;;;5036257;28;20052;-72
2024/01/06 11:35:14;;;;;;;7.15;6.47;;;4.40;99.90;;;;;;5010123;28;20025;-70
2024/01/06 11:37:40;;;;;;;9.88;9.07;;;4.40;99.90;;;;;;5009205;28;20254;-70
2024/01/06 11:40:23;;;;;;;12.63;7.75;;;4.40;99.90;;;;;;5007721;28;20044;-70
2024/01/06 11:43:08;;;;;;;10.32;9.43;;;4.30;99.90;;;;;;5034911;28;20032;-70
2024/01/06 11:45:36;;;;;;;9.10;8.20;;;4.20;99.90;;;;;;5044995;28;20052;-70
2024/01/06 11:48:07;;;;;;;8.82;8.07;;;4.20;99.90;;;;;;5021982;28;20052;-71
2024/01/06 11:50:38;;;;;;;12.75;7.82;;;4.10;99.90;;;;;;5045403;28;20261;-70
2024/01/06 11:53:04;;;;;;;10.95;8.65;;;4.20;99.90;;;;;;5027025;28;20024;-70
2024/01/06 11:55:35;;;;;;;10.45;9.07;;;4.20;99.90;;;;;;5022708;28;20021;-69
2024/01/06 11:58:02;;;;;;;10.15;9.25;;;4.30;99.90;;;;;;5008340;28;20214;-70
2024/01/06 12:00:29;;;;;;;7.95;7.15;;;4.30;99.90;;;;;;5023905;28;20298;-71
2024/01/06 12:03:00;;;;;;;7.53;6.53;;;4.30;99.90;;;;;;5040466;28;20092;-70
2024/01/06 12:05:27;;;;;;;7.38;6.78;;;4.40;99.90;;;;;;5044489;28;20031;-70
2024/01/06 12:08:01;;;;;;;10.48;9.07;;;4.30;99.90;;;;;;5017423;28;20026;-69
2024/01/06 12:10:29;;;;;;;9.35;8.30;;;4.30;99.90;;;;;;5004530;28;20021;-70
2024/01/06 12:12:59;;;;;;;10.50;8.43;;;4.30;99.90;;;;;;5008539;28;20044;-69
2024/01/06 12:15:25;;;;;;;6.75;5.95;;;4.30;99.90;;;;;;5010258;28;20021;-70
2024/01/06 12:17:52;;;;;;;8.75;6.88;;;4.30;99.90;;;;;;5023293;28;20303;-71
2024/01/06 12:20:17;;;;;;;11.48;9.35;;;4.30;99.90;;;;;;5021268;28;20105;-70
2024/01/06 12:22:44;;;;;;;9.05;8.23;;;4.40;99.90;;;;;;5019336;28;20025;-70
2024/01/06 12:25:10;;;;;;;9.05;8.15;;;4.50;99.90;;;;;;5039307;28;20026;-70
2024/01/06 12:27:41;;;;;;;9.05;7.07;;;4.50;99.90;;;;;;5025048;28;20188;-69
2024/01/06 12:30:16;;;;;;;8.98;7.55;;;4.50;99.90;;;;;;5041839;28;20021;-70
2024/01/06 12:32:48;;;;;;;8.25;7.53;;;4.60;99.90;;;;;;5020063;28;20022;-72
2024/01/06 12:35:15;;;;;;;12.00;7.60;;;4.60;99.90;;;;;;5026315;28;20021;-70
2024/01/06 12:37:42;;;;;;;8.82;7.93;;;4.50;99.90;;;;;;5025521;28;20064;-71
2024/01/06 12:40:10;;;;;;;7.47;5.85;;;4.50;99.90;;;;;;5026066;28;20051;-70
2024/01/06 12:42:36;;;;;;;8.20;7.50;;;4.60;99.90;;;;;;5040026;28;20314;-69